sensor_id;sensor_type;location;lat;lon;timestamp;P1;durP1;ratioP1;P2;durP2;ratioP2
75680;SDS011;64294;49.176;16.626;2023-05-10T00:00:14;4.53;;;2.50;;
75680;SDS011;64294;49.176;16.626;2023-05-10T00:02:40;6.63;;;2.80;;
75680;SDS011;64294;49.176;16.626;2023-05-10T00:05:05;5.38;;;2.42;;
75680;SDS011;64294;49.176;16.626;2023-05-10T00:07:31;4.75;;;2.35;;
75680;SDS011;64294;49.176;16.626;2023-05-10T00:09:57;6.45;;;3.05;;
75680;SDS011;64294;49.176;16.626;2023-05-10T00:12:22;4.03;;;2.55;;
75680;SDS011;64294;49.176;16.626;2023-05-10T00:14:48;4.63;;;2.90;;
75680;SDS011;64294;49.176;16.626;2023-05-10T00:17:13;4.88;;;2.80;;
75680;SDS011;64294;49.176;16.626;2023-05-10T00:19:38;3.70;;;2.63;;
75680;SDS011;64294;49.176;16.626;2023-05-10T00:22:04;5.60;;;2.80;;
75680;SDS011;64294;49.176;16.626;2023-05-10T00:24:29;4.20;;;2.50;;
75680;SDS011;64294;49.176;16.626;2023-05-10T00:26:55;4.55;;;2.60;;
75680;SDS011;64294;49.176;16.626;2023-05-10T00:29:20;4.80;;;2.60;;
75680;SDS011;64294;49.176;16.626;2023-05-10T00:31:45;5.60;;;3.17;;
75680;SDS011;64294;49.176;16.626;2023-05-10T00:34:11;7.80;;;3.50;;
75680;SDS011;64294;49.176;16.626;2023-05-10T00:36:36;5.95;;;2.80;;
75680;SDS011;64294;49.176;16.626;2023-05-10T00:39:01;4.55;;;2.60;;
75680;SDS011;64294;49.176;16.626;2023-05-10T00:41:28;6.20;;;3.03;;
75680;SDS011;64294;49.176;16.626;2023-05-10T00:43:56;5.63;;;2.92;;
75680;SDS011;64294;49.176;16.626;2023-05-10T00:46:22;5.63;;;2.83;;
75680;SDS011;64294;49.176;16.626;2023-05-10T00:48:47;3.78;;;2.60;;
75680;SDS011;64294;49.176;16.626;2023-05-10T00:51:13;5.13;;;2.70;;
75680;SDS011;64294;49.176;16.626;2023-05-10T00:53:39;7.57;;;3.58;;
75680;SDS011;64294;49.176;16.626;2023-05-10T00:56:05;6.68;;;2.70;;
75680;SDS011;64294;49.176;16.626;2023-05-10T00:58:31;5.90;;;2.95;;
75680;SDS011;64294;49.176;16.626;2023-05-10T01:00:56;5.03;;;3.30;;
75680;SDS011;64294;49.176;16.626;2023-05-10T01:03:23;4.35;;;2.70;;
75680;SDS011;64294;49.176;16.626;2023-05-10T01:05:49;5.28;;;3.05;;
75680;SDS011;64294;49.176;16.626;2023-05-10T01:08:15;4.57;;;2.45;;
75680;SDS011;64294;49.176;16.626;2023-05-10T01:10:41;5.70;;;2.95;;
75680;SDS011;64294;49.176;16.626;2023-05-10T01:13:07;5.45;;;2.65;;
75680;SDS011;64294;49.176;16.626;2023-05-10T01:15:33;4.03;;;2.42;;
75680;SDS011;64294;49.176;16.626;2023-05-10T01:17:59;5.00;;;2.78;;
75680;SDS011;64294;49.176;16.626;2023-05-10T01:20:25;6.35;;;2.80;;
75680;SDS011;64294;49.176;16.626;2023-05-10T01:33:52;5.18;;;2.80;;
75680;SDS011;64294;49.176;16.626;2023-05-10T01:40:00;3.78;;;2.60;;
75680;SDS011;64294;49.176;16.626;2023-05-10T01:42:11;4.53;;;2.67;;
75680;SDS011;64294;49.176;16.626;2023-05-10T01:48:03;4.55;;;2.70;;
75680;SDS011;64294;49.176;16.626;2023-05-10T01:50:18;5.28;;;2.70;;
75680;SDS011;64294;49.176;16.626;2023-05-10T01:52:49;4.65;;;2.70;;
75680;SDS011;64294;49.176;16.626;2023-05-10T01:55:20;4.22;;;2.67;;
75680;SDS011;64294;49.176;16.626;2023-05-10T01:57:51;5.78;;;2.85;;
75680;SDS011;64294;49.176;16.626;2023-05-10T02:00:23;4.18;;;2.63;;
75680;SDS011;64294;49.176;16.626;2023-05-10T02:02:49;4.63;;;2.78;;
75680;SDS011;64294;49.176;16.626;2023-05-10T02:05:17;5.03;;;2.97;;
75680;SDS011;64294;49.176;16.626;2023-05-10T02:07:43;7.32;;;2.83;;
75680;SDS011;64294;49.176;16.626;2023-05-10T02:10:10;8.40;;;3.25;;
75680;SDS011;64294;49.176;16.626;2023-05-10T02:12:37;4.00;;;2.70;;
75680;SDS011;64294;49.176;16.626;2023-05-10T02:15:06;6.15;;;3.28;;
75680;SDS011;64294;49.176;16.626;2023-05-10T02:17:34;5.90;;;2.85;;
75680;SDS011;64294;49.176;16.626;2023-05-10T02:20:01;4.53;;;2.97;;
75680;SDS011;64294;49.176;16.626;2023-05-10T02:22:28;5.55;;;3.30;;
75680;SDS011;64294;49.176;16.626;2023-05-10T02:24:55;5.05;;;3.10;;
75680;SDS011;64294;49.176;16.626;2023-05-10T02:27:22;4.47;;;2.90;;
75680;SDS011;64294;49.176;16.626;2023-05-10T02:29:50;4.68;;;3.10;;
75680;SDS011;64294;49.176;16.626;2023-05-10T02:32:16;4.88;;;2.97;;
75680;SDS011;64294;49.176;16.626;2023-05-10T02:34:44;6.65;;;3.15;;
75680;SDS011;64294;49.176;16.626;2023-05-10T02:37:11;3.97;;;2.63;;
75680;SDS011;64294;49.176;16.626;2023-05-10T02:39:40;3.85;;;2.67;;
75680;SDS011;64294;49.176;16.626;2023-05-10T02:42:09;6.85;;;3.08;;
75680;SDS011;64294;49.176;16.626;2023-05-10T02:44:40;4.53;;;2.80;;
75680;SDS011;64294;49.176;16.626;2023-05-10T02:47:07;10.98;;;3.05;;
75680;SDS011;64294;49.176;16.626;2023-05-10T02:49:32;7.97;;;3.13;;
75680;SDS011;64294;49.176;16.626;2023-05-10T02:52:00;5.28;;;2.72;;
75680;SDS011;64294;49.176;16.626;2023-05-10T02:54:30;6.45;;;3.08;;
75680;SDS011;64294;49.176;16.626;2023-05-10T02:56:58;4.75;;;2.95;;
75680;SDS011;64294;49.176;16.626;2023-05-10T02:59:27;4.13;;;2.60;;
75680;SDS011;64294;49.176;16.626;2023-05-10T03:01:53;4.25;;;2.60;;
75680;SDS011;64294;49.176;16.626;2023-05-10T03:04:18;4.55;;;2.90;;
75680;SDS011;64294;49.176;16.626;2023-05-10T03:06:44;5.72;;;3.15;;
75680;SDS011;64294;49.176;16.626;2023-05-10T03:09:10;6.60;;;3.20;;
75680;SDS011;64294;49.176;16.626;2023-05-10T03:11:39;6.75;;;3.10;;
75680;SDS011;64294;49.176;16.626;2023-05-10T03:19:46;4.93;;;2.88;;
75680;SDS011;64294;49.176;16.626;2023-05-10T03:22:17;9.02;;;3.10;;
75680;SDS011;64294;49.176;16.626;2023-05-10T03:27:16;4.85;;;2.80;;
75680;SDS011;64294;49.176;16.626;2023-05-10T03:29:43;5.38;;;2.92;;
75680;SDS011;64294;49.176;16.626;2023-05-10T03:32:11;5.65;;;2.83;;
75680;SDS011;64294;49.176;16.626;2023-05-10T03:34:40;4.75;;;2.90;;
75680;SDS011;64294;49.176;16.626;2023-05-10T03:37:08;5.20;;;2.80;;
75680;SDS011;64294;49.176;16.626;2023-05-10T03:39:34;5.35;;;3.30;;
75680;SDS011;64294;49.176;16.626;2023-05-10T03:41:59;8.38;;;3.35;;
75680;SDS011;64294;49.176;16.626;2023-05-10T03:44:24;5.30;;;3.05;;
75680;SDS011;64294;49.176;16.626;2023-05-10T03:46:50;5.40;;;3.10;;
75680;SDS011;64294;49.176;16.626;2023-05-10T03:49:15;6.28;;;3.00;;
75680;SDS011;64294;49.176;16.626;2023-05-10T03:51:40;6.40;;;3.10;;
75680;SDS011;64294;49.176;16.626;2023-05-10T03:54:06;5.75;;;3.42;;
75680;SDS011;64294;49.176;16.626;2023-05-10T03:56:31;5.32;;;3.15;;
75680;SDS011;64294;49.176;16.626;2023-05-10T03:58:57;6.90;;;3.17;;
75680;SDS011;64294;49.176;16.626;2023-05-10T04:01:23;12.88;;;4.18;;
75680;SDS011;64294;49.176;16.626;2023-05-10T04:03:48;6.38;;;3.30;;
75680;SDS011;64294;49.176;16.626;2023-05-10T04:06:14;4.32;;;2.70;;
75680;SDS011;64294;49.176;16.626;2023-05-10T04:08:39;4.18;;;2.78;;
75680;SDS011;64294;49.176;16.626;2023-05-10T04:11:07;5.40;;;3.10;;
75680;SDS011;64294;49.176;16.626;2023-05-10T04:13:37;6.50;;;3.38;;
75680;SDS011;64294;49.176;16.626;2023-05-10T04:16:03;5.32;;;3.20;;
75680;SDS011;64294;49.176;16.626;2023-05-10T04:18:29;7.13;;;3.35;;
75680;SDS011;64294;49.176;16.626;2023-05-10T04:20:55;6.65;;;3.17;;
75680;SDS011;64294;49.176;16.626;2023-05-10T04:23:20;6.32;;;2.80;;
75680;SDS011;64294;49.176;16.626;2023-05-10T04:25:46;5.95;;;3.35;;
75680;SDS011;64294;49.176;16.626;2023-05-10T04:28:11;8.30;;;3.17;;
75680;SDS011;64294;49.176;16.626;2023-05-10T04:30:36;7.15;;;3.40;;
75680;SDS011;64294;49.176;16.626;2023-05-10T04:33:02;8.80;;;3.60;;
75680;SDS011;64294;49.176;16.626;2023-05-10T04:35:28;6.75;;;3.35;;
75680;SDS011;64294;49.176;16.626;2023-05-10T04:37:54;7.65;;;3.22;;
75680;SDS011;64294;49.176;16.626;2023-05-10T04:40:19;5.90;;;3.40;;
75680;SDS011;64294;49.176;16.626;2023-05-10T04:42:45;5.72;;;3.67;;
75680;SDS011;64294;49.176;16.626;2023-05-10T04:45:11;23.27;;;9.75;;
75680;SDS011;64294;49.176;16.626;2023-05-10T04:47:36;8.43;;;3.60;;
75680;SDS011;64294;49.176;16.626;2023-05-10T04:50:02;6.10;;;3.30;;
75680;SDS011;64294;49.176;16.626;2023-05-10T04:52:28;7.10;;;3.80;;
75680;SDS011;64294;49.176;16.626;2023-05-10T04:54:53;6.68;;;3.67;;
75680;SDS011;64294;49.176;16.626;2023-05-10T04:57:19;11.27;;;3.72;;
75680;SDS011;64294;49.176;16.626;2023-05-10T04:59:44;6.70;;;3.70;;
75680;SDS011;64294;49.176;16.626;2023-05-10T05:02:10;6.90;;;3.50;;
75680;SDS011;64294;49.176;16.626;2023-05-10T05:04:35;6.63;;;3.92;;
75680;SDS011;64294;49.176;16.626;2023-05-10T05:07:01;6.80;;;4.10;;
75680;SDS011;64294;49.176;16.626;2023-05-10T05:09:26;8.82;;;4.10;;
75680;SDS011;64294;49.176;16.626;2023-05-10T05:11:51;6.32;;;3.53;;
75680;SDS011;64294;49.176;16.626;2023-05-10T05:14:17;10.50;;;3.88;;
75680;SDS011;64294;49.176;16.626;2023-05-10T05:16:42;8.10;;;3.70;;
75680;SDS011;64294;49.176;16.626;2023-05-10T05:19:07;10.68;;;4.55;;
75680;SDS011;64294;49.176;16.626;2023-05-10T05:21:33;6.32;;;3.95;;
75680;SDS011;64294;49.176;16.626;2023-05-10T05:23:58;7.05;;;3.70;;
75680;SDS011;64294;49.176;16.626;2023-05-10T05:26:24;8.20;;;3.75;;
75680;SDS011;64294;49.176;16.626;2023-05-10T05:28:51;5.85;;;4.00;;
75680;SDS011;64294;49.176;16.626;2023-05-10T05:31:19;8.63;;;4.05;;
75680;SDS011;64294;49.176;16.626;2023-05-10T05:33:45;7.40;;;4.15;;
75680;SDS011;64294;49.176;16.626;2023-05-10T05:36:10;7.68;;;4.00;;
75680;SDS011;64294;49.176;16.626;2023-05-10T05:38:36;9.38;;;4.10;;
75680;SDS011;64294;49.176;16.626;2023-05-10T05:41:01;9.85;;;4.47;;
75680;SDS011;64294;49.176;16.626;2023-05-10T05:43:27;7.65;;;4.40;;
75680;SDS011;64294;49.176;16.626;2023-05-10T05:45:53;12.75;;;4.50;;
75680;SDS011;64294;49.176;16.626;2023-05-10T05:48:18;11.60;;;4.03;;
75680;SDS011;64294;49.176;16.626;2023-05-10T05:50:44;8.18;;;4.03;;
75680;SDS011;64294;49.176;16.626;2023-05-10T05:53:10;15.85;;;4.60;;
75680;SDS011;64294;49.176;16.626;2023-05-10T05:55:36;8.80;;;4.07;;
75680;SDS011;64294;49.176;16.626;2023-05-10T05:58:01;9.57;;;4.05;;
75680;SDS011;64294;49.176;16.626;2023-05-10T06:00:27;12.88;;;4.80;;
75680;SDS011;64294;49.176;16.626;2023-05-10T06:02:52;7.60;;;4.30;;
75680;SDS011;64294;49.176;16.626;2023-05-10T06:05:18;10.30;;;4.35;;
75680;SDS011;64294;49.176;16.626;2023-05-10T06:07:43;8.68;;;4.22;;
75680;SDS011;64294;49.176;16.626;2023-05-10T06:10:09;7.80;;;4.32;;
75680;SDS011;64294;49.176;16.626;2023-05-10T06:12:34;12.73;;;4.45;;
75680;SDS011;64294;49.176;16.626;2023-05-10T06:15:00;7.22;;;4.40;;
75680;SDS011;64294;49.176;16.626;2023-05-10T06:17:26;8.55;;;4.35;;
75680;SDS011;64294;49.176;16.626;2023-05-10T06:19:52;7.90;;;4.68;;
75680;SDS011;64294;49.176;16.626;2023-05-10T06:22:18;7.82;;;4.30;;
75680;SDS011;64294;49.176;16.626;2023-05-10T06:24:43;8.73;;;4.00;;
75680;SDS011;64294;49.176;16.626;2023-05-10T06:27:09;6.53;;;4.00;;
75680;SDS011;64294;49.176;16.626;2023-05-10T06:29:34;6.65;;;4.20;;
75680;SDS011;64294;49.176;16.626;2023-05-10T06:32:00;6.82;;;4.40;;
75680;SDS011;64294;49.176;16.626;2023-05-10T06:34:25;11.38;;;4.60;;
75680;SDS011;64294;49.176;16.626;2023-05-10T06:36:51;7.50;;;4.38;;
75680;SDS011;64294;49.176;16.626;2023-05-10T06:39:16;8.77;;;4.63;;
75680;SDS011;64294;49.176;16.626;2023-05-10T06:41:42;9.52;;;4.65;;
75680;SDS011;64294;49.176;16.626;2023-05-10T06:44:07;8.55;;;4.30;;
75680;SDS011;64294;49.176;16.626;2023-05-10T06:46:33;7.68;;;4.47;;
75680;SDS011;64294;49.176;16.626;2023-05-10T06:48:59;6.97;;;4.30;;
75680;SDS011;64294;49.176;16.626;2023-05-10T06:51:24;7.32;;;4.20;;
75680;SDS011;64294;49.176;16.626;2023-05-10T06:53:49;7.30;;;4.72;;
75680;SDS011;64294;49.176;16.626;2023-05-10T06:56:15;7.82;;;4.38;;
75680;SDS011;64294;49.176;16.626;2023-05-10T06:58:40;8.27;;;4.45;;
75680;SDS011;64294;49.176;16.626;2023-05-10T07:01:05;8.73;;;4.20;;
75680;SDS011;64294;49.176;16.626;2023-05-10T07:03:31;6.50;;;4.25;;
75680;SDS011;64294;49.176;16.626;2023-05-10T07:06:00;8.50;;;4.60;;
75680;SDS011;64294;49.176;16.626;2023-05-10T07:08:28;7.53;;;4.35;;
75680;SDS011;64294;49.176;16.626;2023-05-10T07:10:59;8.02;;;4.40;;
75680;SDS011;64294;49.176;16.626;2023-05-10T07:13:32;9.68;;;4.47;;
75680;SDS011;64294;49.176;16.626;2023-05-10T07:16:00;7.82;;;4.80;;
75680;SDS011;64294;49.176;16.626;2023-05-10T07:18:27;7.72;;;4.18;;
75680;SDS011;64294;49.176;16.626;2023-05-10T07:20:52;10.43;;;4.40;;
75680;SDS011;64294;49.176;16.626;2023-05-10T07:23:18;6.93;;;4.68;;
75680;SDS011;64294;49.176;16.626;2023-05-10T07:25:44;10.57;;;4.53;;
75680;SDS011;64294;49.176;16.626;2023-05-10T07:28:14;8.82;;;4.50;;
75680;SDS011;64294;49.176;16.626;2023-05-10T07:30:41;6.60;;;4.10;;
75680;SDS011;64294;49.176;16.626;2023-05-10T07:33:08;7.80;;;4.50;;
75680;SDS011;64294;49.176;16.626;2023-05-10T07:35:34;9.23;;;4.65;;
75680;SDS011;64294;49.176;16.626;2023-05-10T07:38:00;13.63;;;4.40;;
75680;SDS011;64294;49.176;16.626;2023-05-10T07:40:25;7.70;;;4.18;;
75680;SDS011;64294;49.176;16.626;2023-05-10T07:42:51;9.80;;;4.75;;
75680;SDS011;64294;49.176;16.626;2023-05-10T07:45:17;8.30;;;4.30;;
75680;SDS011;64294;49.176;16.626;2023-05-10T07:47:42;8.27;;;3.78;;
75680;SDS011;64294;49.176;16.626;2023-05-10T07:50:08;7.32;;;3.47;;
75680;SDS011;64294;49.176;16.626;2023-05-10T07:52:33;5.88;;;3.30;;
75680;SDS011;64294;49.176;16.626;2023-05-10T07:54:59;7.80;;;3.40;;
75680;SDS011;64294;49.176;16.626;2023-05-10T07:57:24;4.75;;;3.03;;
75680;SDS011;64294;49.176;16.626;2023-05-10T07:59:50;5.55;;;3.00;;
75680;SDS011;64294;49.176;16.626;2023-05-10T08:02:15;12.00;;;3.22;;
75680;SDS011;64294;49.176;16.626;2023-05-10T08:04:40;4.43;;;2.88;;
75680;SDS011;64294;49.176;16.626;2023-05-10T08:07:06;4.30;;;2.95;;
75680;SDS011;64294;49.176;16.626;2023-05-10T08:09:32;4.35;;;2.75;;
75680;SDS011;64294;49.176;16.626;2023-05-10T08:11:57;6.72;;;2.80;;
75680;SDS011;64294;49.176;16.626;2023-05-10T08:14:24;4.20;;;2.78;;
75680;SDS011;64294;49.176;16.626;2023-05-10T08:16:49;5.45;;;2.50;;
75680;SDS011;64294;49.176;16.626;2023-05-10T08:19:15;4.35;;;2.75;;
75680;SDS011;64294;49.176;16.626;2023-05-10T08:21:44;4.03;;;2.50;;
75680;SDS011;64294;49.176;16.626;2023-05-10T08:24:09;4.30;;;2.65;;
75680;SDS011;64294;49.176;16.626;2023-05-10T08:26:35;4.32;;;2.83;;
75680;SDS011;64294;49.176;16.626;2023-05-10T08:29:00;5.90;;;2.65;;
75680;SDS011;64294;49.176;16.626;2023-05-10T08:31:26;4.15;;;2.70;;
75680;SDS011;64294;49.176;16.626;2023-05-10T08:33:51;10.60;;;3.30;;
75680;SDS011;64294;49.176;16.626;2023-05-10T08:36:17;8.32;;;2.60;;
75680;SDS011;64294;49.176;16.626;2023-05-10T08:38:46;6.18;;;2.75;;
75680;SDS011;64294;49.176;16.626;2023-05-10T08:41:20;3.80;;;3.00;;
75680;SDS011;64294;49.176;16.626;2023-05-10T08:43:46;4.35;;;2.67;;
75680;SDS011;64294;49.176;16.626;2023-05-10T08:46:16;4.38;;;2.95;;
75680;SDS011;64294;49.176;16.626;2023-05-10T08:48:43;5.55;;;2.70;;
75680;SDS011;64294;49.176;16.626;2023-05-10T08:51:10;5.25;;;3.10;;
75680;SDS011;64294;49.176;16.626;2023-05-10T08:53:38;5.78;;;2.92;;
75680;SDS011;64294;49.176;16.626;2023-05-10T08:56:04;3.05;;;2.40;;
75680;SDS011;64294;49.176;16.626;2023-05-10T08:58:30;5.30;;;2.90;;
75680;SDS011;64294;49.176;16.626;2023-05-10T09:00:56;8.18;;;2.70;;
75680;SDS011;64294;49.176;16.626;2023-05-10T09:03:22;6.32;;;2.67;;
75680;SDS011;64294;49.176;16.626;2023-05-10T09:05:48;4.15;;;2.30;;
75680;SDS011;64294;49.176;16.626;2023-05-10T09:08:14;3.28;;;2.40;;
75680;SDS011;64294;49.176;16.626;2023-05-10T09:10:42;5.45;;;2.10;;
75680;SDS011;64294;49.176;16.626;2023-05-10T09:13:08;3.80;;;2.00;;
75680;SDS011;64294;49.176;16.626;2023-05-10T09:15:36;4.45;;;2.50;;
75680;SDS011;64294;49.176;16.626;2023-05-10T09:18:02;6.68;;;2.22;;
75680;SDS011;64294;49.176;16.626;2023-05-10T09:20:27;4.40;;;2.30;;
75680;SDS011;64294;49.176;16.626;2023-05-10T09:22:53;3.70;;;1.88;;
75680;SDS011;64294;49.176;16.626;2023-05-10T09:25:19;5.38;;;2.30;;
75680;SDS011;64294;49.176;16.626;2023-05-10T09:27:45;4.45;;;2.30;;
75680;SDS011;64294;49.176;16.626;2023-05-10T09:32:50;9.05;;;2.50;;
75680;SDS011;64294;49.176;16.626;2023-05-10T09:35:18;8.15;;;2.30;;
75680;SDS011;64294;49.176;16.626;2023-05-10T09:37:46;9.90;;;2.67;;
75680;SDS011;64294;49.176;16.626;2023-05-10T09:40:14;7.78;;;2.35;;
75680;SDS011;64294;49.176;16.626;2023-05-10T09:42:54;7.43;;;2.10;;
75680;SDS011;64294;49.176;16.626;2023-05-10T09:45:22;4.65;;;2.30;;
75680;SDS011;64294;49.176;16.626;2023-05-10T09:47:51;3.53;;;2.15;;
75680;SDS011;64294;49.176;16.626;2023-05-10T09:50:17;7.15;;;2.38;;
75680;SDS011;64294;49.176;16.626;2023-05-10T09:52:57;4.82;;;2.80;;
75680;SDS011;64294;49.176;16.626;2023-05-10T09:55:25;11.95;;;3.17;;
75680;SDS011;64294;49.176;16.626;2023-05-10T09:58:02;4.95;;;2.55;;
75680;SDS011;64294;49.176;16.626;2023-05-10T10:00:33;3.10;;;2.40;;
75680;SDS011;64294;49.176;16.626;2023-05-10T10:03:00;6.60;;;2.40;;
75680;SDS011;64294;49.176;16.626;2023-05-10T10:05:33;4.50;;;2.50;;
75680;SDS011;64294;49.176;16.626;2023-05-10T10:08:00;5.68;;;2.70;;
75680;SDS011;64294;49.176;16.626;2023-05-10T10:10:28;5.57;;;2.63;;
75680;SDS011;64294;49.176;16.626;2023-05-10T10:12:54;6.20;;;2.70;;
75680;SDS011;64294;49.176;16.626;2023-05-10T10:15:20;5.82;;;2.80;;
75680;SDS011;64294;49.176;16.626;2023-05-10T10:17:48;7.88;;;2.60;;
75680;SDS011;64294;49.176;16.626;2023-05-10T10:20:14;4.85;;;2.50;;
75680;SDS011;64294;49.176;16.626;2023-05-10T10:22:40;3.60;;;2.33;;
75680;SDS011;64294;49.176;16.626;2023-05-10T10:25:06;4.53;;;2.53;;
75680;SDS011;64294;49.176;16.626;2023-05-10T10:27:40;5.35;;;2.95;;
75680;SDS011;64294;49.176;16.626;2023-05-10T10:30:25;4.35;;;2.20;;
75680;SDS011;64294;49.176;16.626;2023-05-10T10:35:28;4.15;;;2.38;;
75680;SDS011;64294;49.176;16.626;2023-05-10T10:37:55;4.72;;;2.30;;
75680;SDS011;64294;49.176;16.626;2023-05-10T10:40:28;15.90;;;2.85;;
75680;SDS011;64294;49.176;16.626;2023-05-10T10:42:58;12.70;;;2.55;;
75680;SDS011;64294;49.176;16.626;2023-05-10T10:45:43;3.78;;;2.08;;
75680;SDS011;64294;49.176;16.626;2023-05-10T10:48:22;4.30;;;2.28;;
75680;SDS011;64294;49.176;16.626;2023-05-10T10:50:55;6.80;;;2.30;;
75680;SDS011;64294;49.176;16.626;2023-05-10T10:53:21;6.13;;;2.37;;
75680;SDS011;64294;49.176;16.626;2023-05-10T10:55:47;5.40;;;2.10;;
75680;SDS011;64294;49.176;16.626;2023-05-10T10:58:28;5.00;;;2.13;;
75680;SDS011;64294;49.176;16.626;2023-05-10T11:01:12;8.40;;;2.33;;
75680;SDS011;64294;49.176;16.626;2023-05-10T11:03:38;5.07;;;2.10;;
75680;SDS011;64294;49.176;16.626;2023-05-10T11:06:03;4.22;;;1.80;;
75680;SDS011;64294;49.176;16.626;2023-05-10T11:08:29;8.40;;;2.20;;
75680;SDS011;64294;49.176;16.626;2023-05-10T11:15:59;5.30;;;2.40;;
75680;SDS011;64294;49.176;16.626;2023-05-10T11:21:27;6.38;;;1.92;;
75680;SDS011;64294;49.176;16.626;2023-05-10T11:23:56;5.13;;;1.95;;
75680;SDS011;64294;49.176;16.626;2023-05-10T11:26:30;6.50;;;2.50;;
75680;SDS011;64294;49.176;16.626;2023-05-10T11:28:57;10.90;;;3.17;;
75680;SDS011;64294;49.176;16.626;2023-05-10T11:31:27;5.93;;;1.90;;
75680;SDS011;64294;49.176;16.626;2023-05-10T11:33:56;12.40;;;2.63;;
75680;SDS011;64294;49.176;16.626;2023-05-10T11:36:24;13.35;;;2.92;;
75680;SDS011;64294;49.176;16.626;2023-05-10T11:38:52;3.90;;;2.00;;
75680;SDS011;64294;49.176;16.626;2023-05-10T11:41:18;2.97;;;2.03;;
75680;SDS011;64294;49.176;16.626;2023-05-10T11:43:46;4.88;;;1.88;;
75680;SDS011;64294;49.176;16.626;2023-05-10T11:46:14;3.00;;;1.85;;
75680;SDS011;64294;49.176;16.626;2023-05-10T11:48:40;5.25;;;2.10;;
75680;SDS011;64294;49.176;16.626;2023-05-10T11:51:09;6.53;;;3.13;;
75680;SDS011;64294;49.176;16.626;2023-05-10T11:53:35;4.90;;;2.28;;
75680;SDS011;64294;49.176;16.626;2023-05-10T11:56:08;4.38;;;2.28;;
75680;SDS011;64294;49.176;16.626;2023-05-10T11:58:35;3.05;;;2.00;;
75680;SDS011;64294;49.176;16.626;2023-05-10T12:01:02;3.42;;;2.30;;
75680;SDS011;64294;49.176;16.626;2023-05-10T12:03:29;3.10;;;2.10;;
75680;SDS011;64294;49.176;16.626;2023-05-10T12:05:55;4.65;;;2.47;;
75680;SDS011;64294;49.176;16.626;2023-05-10T12:08:22;3.78;;;2.20;;
75680;SDS011;64294;49.176;16.626;2023-05-10T12:10:49;5.15;;;2.70;;
75680;SDS011;64294;49.176;16.626;2023-05-10T12:13:15;15.93;;;2.67;;
75680;SDS011;64294;49.176;16.626;2023-05-10T12:15:40;9.07;;;2.60;;
75680;SDS011;64294;49.176;16.626;2023-05-10T12:18:10;6.97;;;3.20;;
75680;SDS011;64294;49.176;16.626;2023-05-10T12:20:37;4.07;;;2.50;;
75680;SDS011;64294;49.176;16.626;2023-05-10T12:23:02;4.97;;;2.20;;
75680;SDS011;64294;49.176;16.626;2023-05-10T12:25:32;3.55;;;2.10;;
75680;SDS011;64294;49.176;16.626;2023-05-10T12:27:59;4.55;;;2.70;;
75680;SDS011;64294;49.176;16.626;2023-05-10T12:30:28;3.97;;;2.33;;
75680;SDS011;64294;49.176;16.626;2023-05-10T12:33:16;9.63;;;2.45;;
75680;SDS011;64294;49.176;16.626;2023-05-10T12:35:46;3.42;;;2.53;;
75680;SDS011;64294;49.176;16.626;2023-05-10T12:40:57;11.23;;;2.80;;
75680;SDS011;64294;49.176;16.626;2023-05-10T12:43:27;7.57;;;2.50;;
75680;SDS011;64294;49.176;16.626;2023-05-10T12:45:53;4.55;;;2.40;;
75680;SDS011;64294;49.176;16.626;2023-05-10T12:48:18;9.60;;;2.50;;
75680;SDS011;64294;49.176;16.626;2023-05-10T12:50:45;10.63;;;2.45;;
75680;SDS011;64294;49.176;16.626;2023-05-10T12:53:10;15.18;;;2.97;;
75680;SDS011;64294;49.176;16.626;2023-05-10T12:55:36;14.18;;;3.47;;
75680;SDS011;64294;49.176;16.626;2023-05-10T12:58:01;6.45;;;2.30;;
75680;SDS011;64294;49.176;16.626;2023-05-10T13:00:26;4.03;;;2.40;;
75680;SDS011;64294;49.176;16.626;2023-05-10T13:02:52;6.53;;;2.40;;
75680;SDS011;64294;49.176;16.626;2023-05-10T13:05:18;6.63;;;2.28;;
75680;SDS011;64294;49.176;16.626;2023-05-10T13:07:43;5.72;;;2.40;;
75680;SDS011;64294;49.176;16.626;2023-05-10T13:10:09;3.75;;;2.33;;
75680;SDS011;64294;49.176;16.626;2023-05-10T13:12:35;4.70;;;2.33;;
75680;SDS011;64294;49.176;16.626;2023-05-10T13:15:01;4.05;;;2.20;;
75680;SDS011;64294;49.176;16.626;2023-05-10T13:17:28;4.88;;;2.40;;
75680;SDS011;64294;49.176;16.626;2023-05-10T13:19:53;7.47;;;2.55;;
75680;SDS011;64294;49.176;16.626;2023-05-10T13:22:19;6.97;;;2.50;;
75680;SDS011;64294;49.176;16.626;2023-05-10T13:24:45;9.57;;;2.40;;
75680;SDS011;64294;49.176;16.626;2023-05-10T13:27:10;3.03;;;2.30;;
75680;SDS011;64294;49.176;16.626;2023-05-10T13:29:35;3.70;;;2.08;;
75680;SDS011;64294;49.176;16.626;2023-05-10T13:32:01;7.55;;;2.28;;
75680;SDS011;64294;49.176;16.626;2023-05-10T13:34:27;5.35;;;2.10;;
75680;SDS011;64294;49.176;16.626;2023-05-10T13:36:52;6.15;;;2.15;;
75680;SDS011;64294;49.176;16.626;2023-05-10T13:39:18;6.63;;;2.78;;
75680;SDS011;64294;49.176;16.626;2023-05-10T13:41:45;3.85;;;2.20;;
75680;SDS011;64294;49.176;16.626;2023-05-10T13:44:11;3.85;;;2.10;;
75680;SDS011;64294;49.176;16.626;2023-05-10T13:46:37;4.10;;;2.20;;
75680;SDS011;64294;49.176;16.626;2023-05-10T13:49:03;8.68;;;2.58;;
75680;SDS011;64294;49.176;16.626;2023-05-10T13:51:29;4.55;;;2.20;;
75680;SDS011;64294;49.176;16.626;2023-05-10T13:53:54;5.63;;;2.00;;
75680;SDS011;64294;49.176;16.626;2023-05-10T13:56:20;13.45;;;2.53;;
75680;SDS011;64294;49.176;16.626;2023-05-10T13:58:45;8.30;;;2.40;;
75680;SDS011;64294;49.176;16.626;2023-05-10T14:01:11;10.02;;;2.47;;
75680;SDS011;64294;49.176;16.626;2023-05-10T14:03:37;5.55;;;2.25;;
75680;SDS011;64294;49.176;16.626;2023-05-10T14:06:02;6.38;;;2.20;;
75680;SDS011;64294;49.176;16.626;2023-05-10T14:08:28;4.57;;;2.38;;
75680;SDS011;64294;49.176;16.626;2023-05-10T14:10:53;10.40;;;2.30;;
75680;SDS011;64294;49.176;16.626;2023-05-10T14:13:21;5.50;;;1.92;;
75680;SDS011;64294;49.176;16.626;2023-05-10T14:15:46;16.83;;;2.92;;
75680;SDS011;64294;49.176;16.626;2023-05-10T14:18:12;9.13;;;2.08;;
75680;SDS011;64294;49.176;16.626;2023-05-10T14:20:37;12.70;;;2.97;;
75680;SDS011;64294;49.176;16.626;2023-05-10T14:23:02;15.73;;;2.60;;
75680;SDS011;64294;49.176;16.626;2023-05-10T14:25:28;5.80;;;2.30;;
75680;SDS011;64294;49.176;16.626;2023-05-10T14:27:53;4.32;;;2.10;;
75680;SDS011;64294;49.176;16.626;2023-05-10T14:30:19;7.13;;;2.50;;
75680;SDS011;64294;49.176;16.626;2023-05-10T14:32:45;9.27;;;2.30;;
75680;SDS011;64294;49.176;16.626;2023-05-10T14:35:11;14.68;;;3.17;;
75680;SDS011;64294;49.176;16.626;2023-05-10T14:37:37;5.53;;;2.63;;
75680;SDS011;64294;49.176;16.626;2023-05-10T14:40:03;10.40;;;2.67;;
75680;SDS011;64294;49.176;16.626;2023-05-10T14:42:29;7.50;;;2.50;;
75680;SDS011;64294;49.176;16.626;2023-05-10T14:44:56;4.80;;;2.38;;
75680;SDS011;64294;49.176;16.626;2023-05-10T14:47:22;4.20;;;2.30;;
75680;SDS011;64294;49.176;16.626;2023-05-10T14:49:47;5.50;;;2.40;;
75680;SDS011;64294;49.176;16.626;2023-05-10T14:52:13;8.20;;;2.50;;
75680;SDS011;64294;49.176;16.626;2023-05-10T14:54:39;3.67;;;2.33;;
75680;SDS011;64294;49.176;16.626;2023-05-10T14:57:05;4.03;;;2.20;;
75680;SDS011;64294;49.176;16.626;2023-05-10T14:59:31;4.57;;;2.47;;
75680;SDS011;64294;49.176;16.626;2023-05-10T15:01:56;2.58;;;2.17;;
75680;SDS011;64294;49.176;16.626;2023-05-10T15:04:22;8.57;;;2.50;;
75680;SDS011;64294;49.176;16.626;2023-05-10T15:06:47;4.60;;;2.67;;
75680;SDS011;64294;49.176;16.626;2023-05-10T15:09:13;6.00;;;2.67;;
75680;SDS011;64294;49.176;16.626;2023-05-10T15:11:38;6.40;;;2.60;;